sensor_id;sensor_type;location;lat;lon;timestamp;P1;durP1;ratioP1;P2;durP2;ratioP2
60372;SDS011;46216;52.220;5.134;2023-05-10T00:01:37;92.72;;;33.05;;
60372;SDS011;46216;52.220;5.134;2023-05-10T00:04:02;116.65;;;32.53;;
60372;SDS011;46216;52.220;5.134;2023-05-10T00:06:28;82.93;;;33.20;;
60372;SDS011;46216;52.220;5.134;2023-05-10T00:08:53;90.80;;;34.05;;
60372;SDS011;46216;52.220;5.134;2023-05-10T00:11:18;90.18;;;34.95;;
60372;SDS011;46216;52.220;5.134;2023-05-10T00:13:44;89.75;;;33.70;;
60372;SDS011;46216;52.220;5.134;2023-05-10T00:16:09;85.65;;;34.50;;
60372;SDS011;46216;52.220;5.134;2023-05-10T00:18:34;90.93;;;34.22;;
60372;SDS011;46216;52.220;5.134;2023-05-10T00:21:00;90.57;;;34.00;;
60372;SDS011;46216;52.220;5.134;2023-05-10T00:23:25;97.75;;;33.42;;
60372;SDS011;46216;52.220;5.134;2023-05-10T00:25:50;102.75;;;33.70;;
60372;SDS011;46216;52.220;5.134;2023-05-10T00:28:16;94.15;;;33.75;;
60372;SDS011;46216;52.220;5.134;2023-05-10T00:30:41;99.90;;;33.30;;
60372;SDS011;46216;52.220;5.134;2023-05-10T00:33:06;109.40;;;33.60;;
60372;SDS011;46216;52.220;5.134;2023-05-10T00:35:31;84.35;;;34.95;;
60372;SDS011;46216;52.220;5.134;2023-05-10T00:37:57;96.55;;;35.03;;
60372;SDS011;46216;52.220;5.134;2023-05-10T00:40:22;91.68;;;36.50;;
60372;SDS011;46216;52.220;5.134;2023-05-10T00:42:47;91.53;;;37.17;;
60372;SDS011;46216;52.220;5.134;2023-05-10T00:45:13;94.90;;;36.85;;
60372;SDS011;46216;52.220;5.134;2023-05-10T00:47:38;94.47;;;38.35;;
60372;SDS011;46216;52.220;5.134;2023-05-10T00:50:04;93.65;;;38.17;;
60372;SDS011;46216;52.220;5.134;2023-05-10T00:52:31;107.78;;;40.15;;
60372;SDS011;46216;52.220;5.134;2023-05-10T00:54:56;101.00;;;40.75;;
60372;SDS011;46216;52.220;5.134;2023-05-10T00:57:22;105.03;;;41.40;;
60372;SDS011;46216;52.220;5.134;2023-05-10T00:59:47;95.32;;;40.70;;
60372;SDS011;46216;52.220;5.134;2023-05-10T01:02:13;102.20;;;41.13;;
60372;SDS011;46216;52.220;5.134;2023-05-10T01:04:38;102.97;;;41.65;;
60372;SDS011;46216;52.220;5.134;2023-05-10T01:07:04;98.15;;;39.95;;
60372;SDS011;46216;52.220;5.134;2023-05-10T01:09:30;93.65;;;40.63;;
60372;SDS011;46216;52.220;5.134;2023-05-10T01:11:55;93.93;;;41.63;;
60372;SDS011;46216;52.220;5.134;2023-05-10T01:14:21;86.65;;;40.45;;
60372;SDS011;46216;52.220;5.134;2023-05-10T01:16:47;95.30;;;41.20;;
60372;SDS011;46216;52.220;5.134;2023-05-10T01:19:19;93.47;;;42.70;;
60372;SDS011;46216;52.220;5.134;2023-05-10T01:21:53;100.10;;;44.85;;
60372;SDS011;46216;52.220;5.134;2023-05-10T01:37:48;101.28;;;45.20;;
60372;SDS011;46216;52.220;5.134;2023-05-10T01:40:20;106.97;;;44.47;;
60372;SDS011;46216;52.220;5.134;2023-05-10T01:42:53;96.60;;;42.83;;
60372;SDS011;46216;52.220;5.134;2023-05-10T01:45:28;105.63;;;44.58;;
60372;SDS011;46216;52.220;5.134;2023-05-10T01:48:12;99.25;;;43.88;;
60372;SDS011;46216;52.220;5.134;2023-05-10T01:50:41;102.93;;;42.85;;
60372;SDS011;46216;52.220;5.134;2023-05-10T01:53:09;101.88;;;43.65;;
60372;SDS011;46216;52.220;5.134;2023-05-10T01:55:37;98.72;;;41.70;;
60372;SDS011;46216;52.220;5.134;2023-05-10T01:58:13;101.43;;;42.78;;
60372;SDS011;46216;52.220;5.134;2023-05-10T02:00:44;100.78;;;42.13;;
60372;SDS011;46216;52.220;5.134;2023-05-10T02:03:11;97.68;;;41.90;;
60372;SDS011;46216;52.220;5.134;2023-05-10T02:05:38;106.10;;;41.20;;
60372;SDS011;46216;52.220;5.134;2023-05-10T02:08:06;91.80;;;39.80;;
60372;SDS011;46216;52.220;5.134;2023-05-10T02:10:35;98.50;;;41.13;;
60372;SDS011;46216;52.220;5.134;2023-05-10T02:13:02;101.82;;;42.17;;
60372;SDS011;46216;52.220;5.134;2023-05-10T02:15:31;108.65;;;42.95;;
60372;SDS011;46216;52.220;5.134;2023-05-10T02:17:57;91.85;;;41.45;;
60372;SDS011;46216;52.220;5.134;2023-05-10T02:20:25;95.88;;;42.83;;
60372;SDS011;46216;52.220;5.134;2023-05-10T02:22:51;95.20;;;42.30;;
60372;SDS011;46216;52.220;5.134;2023-05-10T02:25:19;98.32;;;42.55;;
60372;SDS011;46216;52.220;5.134;2023-05-10T02:27:47;105.68;;;43.88;;
60372;SDS011;46216;52.220;5.134;2023-05-10T02:30:13;100.97;;;43.33;;
60372;SDS011;46216;52.220;5.134;2023-05-10T02:32:40;94.63;;;41.13;;
60372;SDS011;46216;52.220;5.134;2023-05-10T02:35:07;95.32;;;41.75;;
60372;SDS011;46216;52.220;5.134;2023-05-10T02:37:34;95.78;;;41.38;;
60372;SDS011;46216;52.220;5.134;2023-05-10T02:40:01;90.53;;;40.67;;
60372;SDS011;46216;52.220;5.134;2023-05-10T02:42:31;97.32;;;41.13;;
60372;SDS011;46216;52.220;5.134;2023-05-10T02:45:02;104.43;;;43.13;;
60372;SDS011;46216;52.220;5.134;2023-05-10T02:47:32;108.53;;;43.30;;
60372;SDS011;46216;52.220;5.134;2023-05-10T02:49:57;104.53;;;43.53;;
60372;SDS011;46216;52.220;5.134;2023-05-10T02:52:24;115.75;;;44.88;;
60372;SDS011;46216;52.220;5.134;2023-05-10T02:54:55;102.28;;;42.33;;
60372;SDS011;46216;52.220;5.134;2023-05-10T02:57:26;103.18;;;44.00;;
60372;SDS011;46216;52.220;5.134;2023-05-10T02:59:56;100.90;;;44.17;;
60372;SDS011;46216;52.220;5.134;2023-05-10T03:02:22;115.53;;;44.35;;
60372;SDS011;46216;52.220;5.134;2023-05-10T03:04:47;121.90;;;42.85;;
60372;SDS011;46216;52.220;5.134;2023-05-10T03:07:12;128.88;;;41.38;;
60372;SDS011;46216;52.220;5.134;2023-05-10T03:09:39;133.13;;;43.03;;
60372;SDS011;46216;52.220;5.134;2023-05-10T03:15:10;138.27;;;41.83;;
60372;SDS011;46216;52.220;5.134;2023-05-10T03:17:45;137.80;;;43.58;;
60372;SDS011;46216;52.220;5.134;2023-05-10T03:20:24;129.40;;;42.20;;
60372;SDS011;46216;52.220;5.134;2023-05-10T03:23:02;129.25;;;40.95;;
60372;SDS011;46216;52.220;5.134;2023-05-10T03:25:36;129.30;;;38.10;;
60372;SDS011;46216;52.220;5.134;2023-05-10T03:28:02;131.02;;;38.40;;
60372;SDS011;46216;52.220;5.134;2023-05-10T03:30:29;134.02;;;37.65;;
60372;SDS011;46216;52.220;5.134;2023-05-10T03:32:55;129.65;;;37.10;;
60372;SDS011;46216;52.220;5.134;2023-05-10T03:35:21;129.70;;;36.10;;
60372;SDS011;46216;52.220;5.134;2023-05-10T03:37:48;126.00;;;37.10;;
60372;SDS011;46216;52.220;5.134;2023-05-10T03:40:13;123.10;;;36.03;;
60372;SDS011;46216;52.220;5.134;2023-05-10T03:42:39;114.38;;;33.90;;
60372;SDS011;46216;52.220;5.134;2023-05-10T03:45:05;118.03;;;33.42;;
60372;SDS011;46216;52.220;5.134;2023-05-10T03:47:31;108.35;;;32.50;;
60372;SDS011;46216;52.220;5.134;2023-05-10T03:49:56;97.53;;;32.45;;
60372;SDS011;46216;52.220;5.134;2023-05-10T03:52:22;97.50;;;31.52;;
60372;SDS011;46216;52.220;5.134;2023-05-10T03:54:47;102.53;;;31.80;;
60372;SDS011;46216;52.220;5.134;2023-05-10T03:57:12;96.53;;;32.95;;
60372;SDS011;46216;52.220;5.134;2023-05-10T03:59:38;97.13;;;31.02;;
60372;SDS011;46216;52.220;5.134;2023-05-10T04:02:03;102.85;;;35.03;;
60372;SDS011;46216;52.220;5.134;2023-05-10T04:04:28;123.97;;;36.10;;
60372;SDS011;46216;52.220;5.134;2023-05-10T04:06:53;120.50;;;37.00;;
60372;SDS011;46216;52.220;5.134;2023-05-10T04:09:19;117.82;;;35.65;;
60372;SDS011;46216;52.220;5.134;2023-05-10T04:11:45;119.03;;;34.25;;
60372;SDS011;46216;52.220;5.134;2023-05-10T04:14:10;117.28;;;34.75;;
60372;SDS011;46216;52.220;5.134;2023-05-10T04:16:35;111.00;;;32.58;;
60372;SDS011;46216;52.220;5.134;2023-05-10T04:19:01;121.35;;;32.13;;
60372;SDS011;46216;52.220;5.134;2023-05-10T04:21:26;123.57;;;33.65;;
60372;SDS011;46216;52.220;5.134;2023-05-10T04:23:51;138.90;;;36.03;;
60372;SDS011;46216;52.220;5.134;2023-05-10T04:26:16;126.50;;;35.03;;
60372;SDS011;46216;52.220;5.134;2023-05-10T04:28:42;134.48;;;35.08;;
60372;SDS011;46216;52.220;5.134;2023-05-10T04:31:08;128.90;;;32.35;;
60372;SDS011;46216;52.220;5.134;2023-05-10T04:33:34;114.85;;;33.85;;
60372;SDS011;46216;52.220;5.134;2023-05-10T04:36:00;116.90;;;34.08;;
60372;SDS011;46216;52.220;5.134;2023-05-10T04:38:26;115.75;;;35.05;;
60372;SDS011;46216;52.220;5.134;2023-05-10T04:40:52;113.45;;;33.83;;
60372;SDS011;46216;52.220;5.134;2023-05-10T04:43:18;116.45;;;36.15;;
60372;SDS011;46216;52.220;5.134;2023-05-10T04:45:43;120.32;;;38.70;;
60372;SDS011;46216;52.220;5.134;2023-05-10T04:48:08;110.00;;;35.67;;
60372;SDS011;46216;52.220;5.134;2023-05-10T04:50:34;109.63;;;36.88;;
60372;SDS011;46216;52.220;5.134;2023-05-10T04:52:59;95.30;;;37.20;;
60372;SDS011;46216;52.220;5.134;2023-05-10T04:55:25;83.93;;;35.13;;
60372;SDS011;46216;52.220;5.134;2023-05-10T04:57:51;92.70;;;37.05;;
60372;SDS011;46216;52.220;5.134;2023-05-10T05:00:17;80.38;;;33.95;;
60372;SDS011;46216;52.220;5.134;2023-05-10T05:02:43;91.28;;;36.97;;
60372;SDS011;46216;52.220;5.134;2023-05-10T05:05:10;95.32;;;36.08;;
60372;SDS011;46216;52.220;5.134;2023-05-10T05:07:35;83.80;;;31.63;;
60372;SDS011;46216;52.220;5.134;2023-05-10T05:10:01;72.68;;;27.48;;
60372;SDS011;46216;52.220;5.134;2023-05-10T05:12:26;64.07;;;23.98;;
60372;SDS011;46216;52.220;5.134;2023-05-10T05:14:51;53.17;;;21.25;;
60372;SDS011;46216;52.220;5.134;2023-05-10T05:17:17;52.92;;;22.15;;
60372;SDS011;46216;52.220;5.134;2023-05-10T05:19:42;46.25;;;21.90;;
60372;SDS011;46216;52.220;5.134;2023-05-10T05:22:07;43.88;;;20.98;;
60372;SDS011;46216;52.220;5.134;2023-05-10T05:24:36;48.85;;;22.27;;
60372;SDS011;46216;52.220;5.134;2023-05-10T05:27:04;46.20;;;21.30;;
60372;SDS011;46216;52.220;5.134;2023-05-10T05:29:31;45.80;;;20.70;;
60372;SDS011;46216;52.220;5.134;2023-05-10T05:31:56;41.85;;;20.70;;
60372;SDS011;46216;52.220;5.134;2023-05-10T05:34:21;38.88;;;19.33;;
60372;SDS011;46216;52.220;5.134;2023-05-10T05:36:47;37.03;;;18.75;;
60372;SDS011;46216;52.220;5.134;2023-05-10T05:39:13;37.42;;;17.92;;
60372;SDS011;46216;52.220;5.134;2023-05-10T05:41:38;32.80;;;16.85;;
60372;SDS011;46216;52.220;5.134;2023-05-10T05:44:04;32.03;;;16.50;;
60372;SDS011;46216;52.220;5.134;2023-05-10T05:46:29;34.20;;;16.23;;
60372;SDS011;46216;52.220;5.134;2023-05-10T05:48:54;35.03;;;16.95;;
60372;SDS011;46216;52.220;5.134;2023-05-10T05:51:20;27.73;;;15.98;;
60372;SDS011;46216;52.220;5.134;2023-05-10T05:53:46;31.30;;;15.60;;
60372;SDS011;46216;52.220;5.134;2023-05-10T05:56:11;33.38;;;16.08;;
60372;SDS011;46216;52.220;5.134;2023-05-10T05:58:36;32.55;;;15.98;;
60372;SDS011;46216;52.220;5.134;2023-05-10T06:01:01;30.80;;;16.58;;
60372;SDS011;46216;52.220;5.134;2023-05-10T06:03:28;32.42;;;17.27;;
60372;SDS011;46216;52.220;5.134;2023-05-10T06:05:53;39.58;;;18.48;;
60372;SDS011;46216;52.220;5.134;2023-05-10T06:08:19;37.17;;;19.40;;
60372;SDS011;46216;52.220;5.134;2023-05-10T06:10:45;39.85;;;19.25;;
60372;SDS011;46216;52.220;5.134;2023-05-10T06:13:10;43.40;;;19.02;;
60372;SDS011;46216;52.220;5.134;2023-05-10T06:15:35;43.10;;;19.10;;
60372;SDS011;46216;52.220;5.134;2023-05-10T06:18:01;38.53;;;18.50;;
60372;SDS011;46216;52.220;5.134;2023-05-10T06:20:26;43.78;;;19.75;;
60372;SDS011;46216;52.220;5.134;2023-05-10T06:22:51;38.53;;;18.83;;
60372;SDS011;46216;52.220;5.134;2023-05-10T06:25:17;35.67;;;18.95;;
60372;SDS011;46216;52.220;5.134;2023-05-10T06:27:43;37.63;;;18.77;;
60372;SDS011;46216;52.220;5.134;2023-05-10T06:30:09;34.63;;;17.98;;
60372;SDS011;46216;52.220;5.134;2023-05-10T06:32:35;32.53;;;17.83;;
60372;SDS011;46216;52.220;5.134;2023-05-10T06:35:00;36.70;;;18.05;;
60372;SDS011;46216;52.220;5.134;2023-05-10T06:37:25;33.50;;;17.48;;
60372;SDS011;46216;52.220;5.134;2023-05-10T06:39:51;30.27;;;17.55;;
60372;SDS011;46216;52.220;5.134;2023-05-10T06:42:16;34.67;;;18.30;;
60372;SDS011;46216;52.220;5.134;2023-05-10T06:44:41;29.95;;;16.58;;
60372;SDS011;46216;52.220;5.134;2023-05-10T06:47:07;23.42;;;15.55;;
60372;SDS011;46216;52.220;5.134;2023-05-10T06:49:32;29.45;;;15.93;;
60372;SDS011;46216;52.220;5.134;2023-05-10T06:51:57;26.23;;;15.45;;
60372;SDS011;46216;52.220;5.134;2023-05-10T06:54:23;24.98;;;15.20;;
60372;SDS011;46216;52.220;5.134;2023-05-10T06:56:48;26.98;;;15.15;;
60372;SDS011;46216;52.220;5.134;2023-05-10T06:59:13;25.33;;;14.98;;
60372;SDS011;46216;52.220;5.134;2023-05-10T07:01:41;25.83;;;14.85;;
60372;SDS011;46216;52.220;5.134;2023-05-10T07:04:06;27.10;;;15.20;;
60372;SDS011;46216;52.220;5.134;2023-05-10T07:06:32;23.70;;;14.88;;
60372;SDS011;46216;52.220;5.134;2023-05-10T07:08:58;27.77;;;15.88;;
60372;SDS011;46216;52.220;5.134;2023-05-10T07:11:24;23.17;;;16.08;;
60372;SDS011;46216;52.220;5.134;2023-05-10T07:13:49;24.00;;;15.25;;
60372;SDS011;46216;52.220;5.134;2023-05-10T07:16:14;26.15;;;14.95;;
60372;SDS011;46216;52.220;5.134;2023-05-10T07:18:40;25.67;;;15.20;;
60372;SDS011;46216;52.220;5.134;2023-05-10T07:21:05;27.15;;;15.85;;
60372;SDS011;46216;52.220;5.134;2023-05-10T07:23:30;26.20;;;15.13;;
60372;SDS011;46216;52.220;5.134;2023-05-10T07:25:56;23.13;;;15.05;;
60372;SDS011;46216;52.220;5.134;2023-05-10T07:28:22;24.05;;;15.05;;
60372;SDS011;46216;52.220;5.134;2023-05-10T07:30:49;23.23;;;13.88;;
60372;SDS011;46216;52.220;5.134;2023-05-10T07:33:14;21.52;;;13.63;;
60372;SDS011;46216;52.220;5.134;2023-05-10T07:35:40;24.38;;;14.73;;
60372;SDS011;46216;52.220;5.134;2023-05-10T07:38:06;23.25;;;14.35;;
60372;SDS011;46216;52.220;5.134;2023-05-10T07:40:32;22.92;;;15.15;;
60372;SDS011;46216;52.220;5.134;2023-05-10T07:42:58;22.27;;;13.40;;
60372;SDS011;46216;52.220;5.134;2023-05-10T07:45:23;22.67;;;14.25;;
60372;SDS011;46216;52.220;5.134;2023-05-10T07:47:49;22.27;;;14.90;;
60372;SDS011;46216;52.220;5.134;2023-05-10T07:50:15;19.48;;;14.25;;
60372;SDS011;46216;52.220;5.134;2023-05-10T07:52:40;20.63;;;14.45;;
60372;SDS011;46216;52.220;5.134;2023-05-10T07:55:06;23.27;;;15.18;;
60372;SDS011;46216;52.220;5.134;2023-05-10T07:57:33;23.85;;;15.20;;
60372;SDS011;46216;52.220;5.134;2023-05-10T07:59:58;23.90;;;15.73;;
60372;SDS011;46216;52.220;5.134;2023-05-10T08:02:24;25.65;;;16.10;;
60372;SDS011;46216;52.220;5.134;2023-05-10T08:04:50;23.13;;;16.23;;
60372;SDS011;46216;52.220;5.134;2023-05-10T08:07:15;25.73;;;16.30;;
60372;SDS011;46216;52.220;5.134;2023-05-10T08:09:41;25.73;;;16.27;;
60372;SDS011;46216;52.220;5.134;2023-05-10T08:12:06;21.52;;;14.85;;
60372;SDS011;46216;52.220;5.134;2023-05-10T08:14:31;19.80;;;13.75;;
60372;SDS011;46216;52.220;5.134;2023-05-10T08:16:57;20.17;;;13.90;;
60372;SDS011;46216;52.220;5.134;2023-05-10T08:19:22;19.83;;;14.68;;
60372;SDS011;46216;52.220;5.134;2023-05-10T08:21:48;19.35;;;13.75;;
60372;SDS011;46216;52.220;5.134;2023-05-10T08:24:13;22.08;;;14.50;;
60372;SDS011;46216;52.220;5.134;2023-05-10T08:26:39;17.70;;;13.05;;
60372;SDS011;46216;52.220;5.134;2023-05-10T08:29:04;21.27;;;13.75;;
60372;SDS011;46216;52.220;5.134;2023-05-10T08:31:30;19.55;;;13.15;;
60372;SDS011;46216;52.220;5.134;2023-05-10T08:33:55;16.17;;;12.52;;
60372;SDS011;46216;52.220;5.134;2023-05-10T08:36:20;16.42;;;12.38;;
60372;SDS011;46216;52.220;5.134;2023-05-10T08:38:51;18.88;;;13.00;;
60372;SDS011;46216;52.220;5.134;2023-05-10T08:41:20;15.50;;;11.95;;
60372;SDS011;46216;52.220;5.134;2023-05-10T08:43:47;17.17;;;12.30;;
60372;SDS011;46216;52.220;5.134;2023-05-10T08:46:16;17.95;;;12.20;;
60372;SDS011;46216;52.220;5.134;2023-05-10T08:48:43;15.68;;;11.20;;
60372;SDS011;46216;52.220;5.134;2023-05-10T08:51:19;16.48;;;12.55;;
60372;SDS011;46216;52.220;5.134;2023-05-10T08:53:48;15.00;;;11.75;;
60372;SDS011;46216;52.220;5.134;2023-05-10T08:56:15;16.55;;;12.57;;
60372;SDS011;46216;52.220;5.134;2023-05-10T08:58:40;15.63;;;11.52;;
60372;SDS011;46216;52.220;5.134;2023-05-10T09:01:06;16.30;;;12.00;;
60372;SDS011;46216;52.220;5.134;2023-05-10T09:03:32;15.23;;;11.45;;
60372;SDS011;46216;52.220;5.134;2023-05-10T09:05:57;15.13;;;10.93;;
60372;SDS011;46216;52.220;5.134;2023-05-10T09:08:23;14.00;;;10.80;;
60372;SDS011;46216;52.220;5.134;2023-05-10T09:10:53;15.43;;;11.15;;
60372;SDS011;46216;52.220;5.134;2023-05-10T09:13:21;14.80;;;11.15;;
60372;SDS011;46216;52.220;5.134;2023-05-10T09:15:47;13.73;;;10.95;;
60372;SDS011;46216;52.220;5.134;2023-05-10T09:18:13;13.00;;;9.57;;
60372;SDS011;46216;52.220;5.134;2023-05-10T09:20:38;12.07;;;9.75;;
60372;SDS011;46216;52.220;5.134;2023-05-10T09:23:03;12.77;;;9.10;;
60372;SDS011;46216;52.220;5.134;2023-05-10T09:25:29;11.45;;;8.82;;
60372;SDS011;46216;52.220;5.134;2023-05-10T09:27:55;13.38;;;8.95;;
60372;SDS011;46216;52.220;5.134;2023-05-10T09:30:24;8.30;;;6.68;;
60372;SDS011;46216;52.220;5.134;2023-05-10T09:32:51;9.63;;;7.60;;
60372;SDS011;46216;52.220;5.134;2023-05-10T09:35:18;10.15;;;7.68;;
60372;SDS011;46216;52.220;5.134;2023-05-10T09:37:47;9.80;;;7.78;;
60372;SDS011;46216;52.220;5.134;2023-05-10T09:40:18;10.13;;;8.02;;
60372;SDS011;46216;52.220;5.134;2023-05-10T09:42:52;10.80;;;7.57;;
60372;SDS011;46216;52.220;5.134;2023-05-10T09:45:18;12.05;;;8.45;;
60372;SDS011;46216;52.220;5.134;2023-05-10T09:47:43;8.70;;;7.45;;
60372;SDS011;46216;52.220;5.134;2023-05-10T09:50:10;11.20;;;7.85;;
60372;SDS011;46216;52.220;5.134;2023-05-10T09:52:49;11.32;;;6.97;;
60372;SDS011;46216;52.220;5.134;2023-05-10T09:55:20;8.77;;;6.45;;
60372;SDS011;46216;52.220;5.134;2023-05-10T09:57:48;7.95;;;6.90;;
60372;SDS011;46216;52.220;5.134;2023-05-10T10:00:16;9.05;;;6.60;;
60372;SDS011;46216;52.220;5.134;2023-05-10T10:02:42;8.82;;;6.97;;
60372;SDS011;46216;52.220;5.134;2023-05-10T10:05:11;7.45;;;5.82;;
60372;SDS011;46216;52.220;5.134;2023-05-10T10:07:36;9.70;;;6.47;;
60372;SDS011;46216;52.220;5.134;2023-05-10T10:10:02;9.07;;;5.97;;
60372;SDS011;46216;52.220;5.134;2023-05-10T10:12:29;7.65;;;6.07;;
60372;SDS011;46216;52.220;5.134;2023-05-10T10:14:56;7.47;;;5.30;;
60372;SDS011;46216;52.220;5.134;2023-05-10T10:17:23;6.35;;;5.43;;
60372;SDS011;46216;52.220;5.134;2023-05-10T10:19:52;7.13;;;5.80;;
60372;SDS011;46216;52.220;5.134;2023-05-10T10:22:18;6.72;;;4.50;;
60372;SDS011;46216;52.220;5.134;2023-05-10T10:24:43;7.45;;;5.50;;
60372;SDS011;46216;52.220;5.134;2023-05-10T10:27:23;6.85;;;4.50;;
60372;SDS011;46216;52.220;5.134;2023-05-10T10:35:28;6.47;;;4.53;;
60372;SDS011;46216;52.220;5.134;2023-05-10T10:37:54;8.85;;;4.70;;
60372;SDS011;46216;52.220;5.134;2023-05-10T10:40:27;7.35;;;4.30;;
60372;SDS011;46216;52.220;5.134;2023-05-10T10:42:52;6.55;;;4.82;;
60372;SDS011;46216;52.220;5.134;2023-05-10T10:45:18;6.82;;;4.60;;
60372;SDS011;46216;52.220;5.134;2023-05-10T10:47:45;4.95;;;4.10;;
60372;SDS011;46216;52.220;5.134;2023-05-10T10:50:10;8.70;;;4.50;;
60372;SDS011;46216;52.220;5.134;2023-05-10T10:55:40;5.68;;;4.50;;
60372;SDS011;46216;52.220;5.134;2023-05-10T10:57:58;5.90;;;4.43;;
60372;SDS011;46216;52.220;5.134;2023-05-10T11:00:28;4.72;;;4.13;;
60372;SDS011;46216;52.220;5.134;2023-05-10T11:03:04;6.50;;;4.60;;
60372;SDS011;46216;52.220;5.134;2023-05-10T11:05:46;7.93;;;5.18;;
60372;SDS011;46216;52.220;5.134;2023-05-10T11:13:28;7.53;;;5.35;;
60372;SDS011;46216;52.220;5.134;2023-05-10T11:15:55;6.00;;;4.60;;
60372;SDS011;46216;52.220;5.134;2023-05-10T11:18:26;7.25;;;4.78;;
60372;SDS011;46216;52.220;5.134;2023-05-10T11:20:54;6.95;;;4.65;;
60372;SDS011;46216;52.220;5.134;2023-05-10T11:23:57;6.10;;;4.35;;
60372;SDS011;46216;52.220;5.134;2023-05-10T11:26:23;6.10;;;4.30;;
60372;SDS011;46216;52.220;5.134;2023-05-10T11:29:07;5.85;;;3.65;;
60372;SDS011;46216;52.220;5.134;2023-05-10T11:31:32;5.53;;;3.85;;
60372;SDS011;46216;52.220;5.134;2023-05-10T11:33:58;6.82;;;3.95;;
60372;SDS011;46216;52.220;5.134;2023-05-10T11:36:26;6.93;;;4.20;;
60372;SDS011;46216;52.220;5.134;2023-05-10T11:38:54;6.68;;;4.15;;
60372;SDS011;46216;52.220;5.134;2023-05-10T11:41:20;7.72;;;4.20;;
60372;SDS011;46216;52.220;5.134;2023-05-10T11:43:48;7.85;;;4.47;;
60372;SDS011;46216;52.220;5.134;2023-05-10T11:46:16;7.65;;;4.53;;
60372;SDS011;46216;52.220;5.134;2023-05-10T11:48:45;7.93;;;4.90;;
60372;SDS011;46216;52.220;5.134;2023-05-10T11:51:11;4.82;;;4.10;;
60372;SDS011;46216;52.220;5.134;2023-05-10T11:53:37;5.80;;;4.00;;
60372;SDS011;46216;52.220;5.134;2023-05-10T11:56:06;5.45;;;4.30;;
60372;SDS011;46216;52.220;5.134;2023-05-10T11:58:33;6.97;;;4.60;;
60372;SDS011;46216;52.220;5.134;2023-05-10T12:01:00;5.15;;;4.00;;
60372;SDS011;46216;52.220;5.134;2023-05-10T12:03:26;5.97;;;4.70;;
60372;SDS011;46216;52.220;5.134;2023-05-10T12:05:52;6.63;;;4.70;;
60372;SDS011;46216;52.220;5.134;2023-05-10T12:08:25;5.78;;;4.13;;
60372;SDS011;46216;52.220;5.134;2023-05-10T12:10:53;5.47;;;4.53;;
60372;SDS011;46216;52.220;5.134;2023-05-10T12:13:28;6.93;;;4.70;;
60372;SDS011;46216;52.220;5.134;2023-05-10T12:15:54;7.05;;;4.85;;
60372;SDS011;46216;52.220;5.134;2023-05-10T12:18:22;6.10;;;4.90;;
60372;SDS011;46216;52.220;5.134;2023-05-10T12:20:53;8.23;;;5.07;;
60372;SDS011;46216;52.220;5.134;2023-05-10T12:23:18;7.00;;;5.20;;
60372;SDS011;46216;52.220;5.134;2023-05-10T12:25:45;6.95;;;4.65;;
60372;SDS011;46216;52.220;5.134;2023-05-10T12:28:11;7.07;;;5.93;;
60372;SDS011;46216;52.220;5.134;2023-05-10T12:30:36;7.00;;;4.72;;
60372;SDS011;46216;52.220;5.134;2023-05-10T12:33:07;6.43;;;4.95;;
60372;SDS011;46216;52.220;5.134;2023-05-10T12:35:43;8.43;;;5.88;;
60372;SDS011;46216;52.220;5.134;2023-05-10T12:40:51;8.07;;;6.50;;
60372;SDS011;46216;52.220;5.134;2023-05-10T12:43:16;8.82;;;7.07;;
60372;SDS011;46216;52.220;5.134;2023-05-10T12:45:41;9.25;;;7.20;;
60372;SDS011;46216;52.220;5.134;2023-05-10T12:48:07;10.02;;;7.93;;
60372;SDS011;46216;52.220;5.134;2023-05-10T12:50:32;12.40;;;8.65;;
60372;SDS011;46216;52.220;5.134;2023-05-10T12:52:58;11.60;;;8.70;;
60372;SDS011;46216;52.220;5.134;2023-05-10T12:55:23;12.52;;;9.18;;
60372;SDS011;46216;52.220;5.134;2023-05-10T12:57:48;12.73;;;9.77;;
60372;SDS011;46216;52.220;5.134;2023-05-10T13:00:14;14.20;;;10.38;;
60372;SDS011;46216;52.220;5.134;2023-05-10T13:02:40;15.73;;;11.25;;
60372;SDS011;46216;52.220;5.134;2023-05-10T13:05:06;15.30;;;10.57;;
60372;SDS011;46216;52.220;5.134;2023-05-10T13:07:31;16.27;;;11.23;;
60372;SDS011;46216;52.220;5.134;2023-05-10T13:09:57;18.42;;;11.45;;
60372;SDS011;46216;52.220;5.134;2023-05-10T13:12:22;19.77;;;12.32;;
60372;SDS011;46216;52.220;5.134;2023-05-10T13:14:47;19.15;;;12.10;;
60372;SDS011;46216;52.220;5.134;2023-05-10T13:17:13;18.38;;;11.13;;
60372;SDS011;46216;52.220;5.134;2023-05-10T13:19:38;22.40;;;12.82;;
60372;SDS011;46216;52.220;5.134;2023-05-10T13:22:03;17.90;;;11.15;;
60372;SDS011;46216;52.220;5.134;2023-05-10T13:24:29;17.80;;;10.68;;
60372;SDS011;46216;52.220;5.134;2023-05-10T13:26:54;16.98;;;11.35;;
60372;SDS011;46216;52.220;5.134;2023-05-10T13:29:20;16.13;;;11.23;;
60372;SDS011;46216;52.220;5.134;2023-05-10T13:31:47;17.92;;;11.43;;
60372;SDS011;46216;52.220;5.134;2023-05-10T13:34:12;15.57;;;10.68;;
60372;SDS011;46216;52.220;5.134;2023-05-10T13:36:39;15.68;;;9.57;;
60372;SDS011;46216;52.220;5.134;2023-05-10T13:39:04;15.55;;;10.10;;
60372;SDS011;46216;52.220;5.134;2023-05-10T13:41:30;13.75;;;8.60;;
60372;SDS011;46216;52.220;5.134;2023-05-10T13:43:55;11.75;;;8.63;;
60372;SDS011;46216;52.220;5.134;2023-05-10T13:46:21;14.07;;;9.02;;
60372;SDS011;46216;52.220;5.134;2023-05-10T13:48:46;12.73;;;8.48;;
60372;SDS011;46216;52.220;5.134;2023-05-10T13:51:11;12.95;;;8.70;;
60372;SDS011;46216;52.220;5.134;2023-05-10T13:53:37;12.48;;;8.20;;
60372;SDS011;46216;52.220;5.134;2023-05-10T13:56:03;11.63;;;8.02;;
60372;SDS011;46216;52.220;5.134;2023-05-10T13:58:28;10.95;;;7.65;;
60372;SDS011;46216;52.220;5.134;2023-05-10T14:00:53;11.20;;;8.23;;
60372;SDS011;46216;52.220;5.134;2023-05-10T14:03:19;12.07;;;8.02;;
60372;SDS011;46216;52.220;5.134;2023-05-10T14:05:44;12.20;;;8.25;;
60372;SDS011;46216;52.220;5.134;2023-05-10T14:08:10;13.55;;;8.30;;
60372;SDS011;46216;52.220;5.134;2023-05-10T14:10:35;14.68;;;8.23;;
60372;SDS011;46216;52.220;5.134;2023-05-10T14:13:01;12.10;;;7.55;;
60372;SDS011;46216;52.220;5.134;2023-05-10T14:15:28;10.30;;;6.97;;
60372;SDS011;46216;52.220;5.134;2023-05-10T14:17:53;12.27;;;8.00;;
60372;SDS011;46216;52.220;5.134;2023-05-10T14:20:18;12.25;;;8.00;;
60372;SDS011;46216;52.220;5.134;2023-05-10T14:22:44;13.05;;;7.88;;
60372;SDS011;46216;52.220;5.134;2023-05-10T14:25:09;10.02;;;7.13;;
60372;SDS011;46216;52.220;5.134;2023-05-10T14:27:35;9.90;;;6.88;;
60372;SDS011;46216;52.220;5.134;2023-05-10T14:30:00;9.57;;;7.32;;
60372;SDS011;46216;52.220;5.134;2023-05-10T14:32:25;9.30;;;7.03;;
60372;SDS011;46216;52.220;5.134;2023-05-10T14:34:52;10.27;;;7.20;;
60372;SDS011;46216;52.220;5.134;2023-05-10T14:37:17;10.52;;;7.00;;
60372;SDS011;46216;52.220;5.134;2023-05-10T14:39:42;11.10;;;7.05;;
60372;SDS011;46216;52.220;5.134;2023-05-10T14:42:08;11.20;;;7.88;;
60372;SDS011;46216;52.220;5.134;2023-05-10T14:44:34;11.32;;;8.13;;
60372;SDS011;46216;52.220;5.134;2023-05-10T14:46:59;11.40;;;8.35;;
60372;SDS011;46216;52.220;5.134;2023-05-10T14:49:27;11.02;;;8.43;;
60372;SDS011;46216;52.220;5.134;2023-05-10T14:51:53;12.95;;;8.68;;
60372;SDS011;46216;52.220;5.134;2023-05-10T14:54:18;13.25;;;8.38;;
60372;SDS011;46216;52.220;5.134;2023-05-10T14:56:43;11.80;;;8.38;;